• Join FlightAware (Why Join?)
  • Login
  • US Flag 
10:00AM EST


 

Airport Tracker/Info


-or-


 

Live Flight TrackerFlight Track Log ✈ UCA3597 ✈ 23-Sep-2013 ✈ KBGM - KIAD

Flight Track Log - Related Links

Times and Time Zones

All times are in EDT time to prevent confusion due to time zone crossing. See the UCA3597 flight status page for this flight to view local times or setup timezone preferences in your user account.

Time Position Orientation Groundspeed Altitude Reporting Facility
EDT Latitude Longitude Course Direction KTS MPH feet Rate Location/Type
07:21PM 42.1989 -76.0614 208° Southwest 144 166 4,500  Level New York Center
07:22PM 42.1494 -76.0964 208° Southwest 164 189 5,800 1,320 Climbing New York Center
07:23PM 42.0997 -76.1400 213° Southwest 198 228 7,100 1,380 Climbing New York Center
07:24PM 42.0500 -76.1806 211° Southwest 210 242 8,600 1,500 Climbing New York Center
07:25PM 42.0003 -76.2214 211° Southwest 218 251 10,100 1,320 Climbing New York Center
07:26PM 41.9547 -76.2594 212° Southwest 218 251 11,300 1,320 Climbing New York Center
07:27PM 41.9050 -76.3025 213° Southwest 218 251 12,800 1,440 Climbing New York Center
07:28PM 41.8508 -76.3481 212° Southwest 218 251 14,300 1,260 Climbing New York Center
07:29PM 41.8053 -76.3861 212° Southwest 218 251 15,400 780 Climbing New York Center
07:30PM 41.7467 -76.4367 213° Southwest 218 251 15,900 240 Climbing New York Center
07:31PM 41.6900 -76.4847 212° Southwest 256 295 15,900  Level New York Center
07:32PM 41.6432 -76.5264 214° Southwest  Level FlightAware Approximate
07:33PM 41.5514 -76.5978 214° Southwest 285 328 16,000  Level New York Center
07:34PM 41.4817 -76.6581 213° Southwest 285 328 16,000  Level New York Center
07:35PM 41.4208 -76.7081 212° Southwest 290 334 16,000 -60 Level New York Center
07:36PM 41.3536 -76.7631 212° Southwest 296 341 15,900  Descending New York Center
07:37PM 41.2750 -76.7919 195° South 291 335 16,000  Climbing New York Center
07:38PM 41.1950 -76.8069 188° South 291 335 16,000  Level New York Center
07:39PM 41.1128 -76.8244 189° South 296 341 16,000  Level New York Center
07:40PM 41.0331 -76.8364 186° South 296 341 16,000  Level New York Center
07:41PM 40.9425 -76.8558 189° South 296 341 16,100  Climbing New York Center
07:42PM 40.8647 -76.8708 188° South 296 341 16,000 -60 Descending New York Center
07:43PM 40.7911 -76.8836 187° South 296 341 16,000  Level New York Center
07:44PM 40.7061 -76.9117 194° South 296 341 16,000  Level New York Center
07:45PM 40.6364 -76.9328 193° South 296 341 16,000  Level New York Center
07:46PM 40.5494 -76.9603 194° South 296 341 16,000  Level New York Center
07:47PM 40.4775 -76.9814 193° South 302 348 16,000 -120 Level New York Center
07:48PM 40.3925 -77.0089 194° South 297 342 15,800 -600 Descending New York Center
07:50PM 40.2333 -77.0500 191° South 301 346 14,200 -840 Descending Potomac TRACON
07:51PM 40.1500 -77.0833 197° South 302 348 13,300 -900 Descending Potomac TRACON
07:52PM 40.0667 -77.1000 189° South 298 343 12,500 -780 Descending Potomac TRACON
07:53PM 39.9833 -77.1333 197° South 296 341 11,800 -840 Descending Potomac TRACON
07:54PM 39.9167 -77.1667 201° Southwest 294 338 10,900 -900 Descending Potomac TRACON
07:55PM 39.8333 -77.2000 197° South 290 334 10,100 -840 Descending Potomac TRACON
07:56PM 39.7667 -77.2167 191° South 286 329 9,300 -600 Descending Potomac TRACON
07:57PM 39.6833 -77.2500 197° South 283 326 9,000 -180 Descending Potomac TRACON
07:58PM 39.6167 -77.2833 201° Southwest 275 316 9,000 -180 Level Potomac TRACON
07:59PM 39.5333 -77.3167 197° South 265 305 8,700 -660 Descending Potomac TRACON
08:00PM 39.4667 -77.3333 191° South 277 319 7,700 -900 Descending Potomac TRACON
08:01PM 39.4000 -77.3667 201° Southwest 270 311 6,900 -1,020 Descending Potomac TRACON
08:02PM 39.3167 -77.3667 180° South 268 308 5,700 -960 Descending Potomac TRACON
08:03PM 39.2333 -77.3667 180° South 235 270 5,000 -900 Descending Potomac TRACON
08:04PM 39.1833 -77.3500 166° South 233 268 4,000 -540 Descending Potomac TRACON
08:05PM 39.1167 -77.3500 180° South 249 287 4,000  Level Potomac TRACON
08:06PM 39.0333 -77.3500 180° South 252 290 4,000  Level Potomac TRACON
08:07PM 38.9667 -77.3500 180° South 256 295 4,000  Level Potomac TRACON
08:08PM 38.9000 -77.3500 180° South 257 296 4,000 -480 Level Potomac TRACON
08:09PM 38.8333 -77.3667 191° South 255 293 3,100 -1,020 Descending Potomac TRACON
08:10PM 38.7833 -77.4000 207° Southwest 230 265 2,000 -600 Descending Potomac TRACON
08:11PM 38.8167 -77.4333 322° Northwest 158 182 2,000 -300 Level Potomac TRACON
08:12PM 38.8667 -77.4333 360° North 148 170 1,400 -600 Descending Potomac TRACON
08:13PM 38.9000 -77.4333 360° North 112 129 800 -600 Descending Potomac TRACON
08:15PM 38.9333 -77.4500 349° North  Level FlightAware Approximate
08:22PM 38.9474 -77.4599 349° North  Level Estimated
08:23PM 38.9474 -77.4599 349° North  Level Estimated